LFLY/LYN METAR and TAF weather

Enter ICAO airport designator
Station Type Date Time Source
LFLY METAR 2021/09/20 05:30 UTC NOAA

LFLY 200530Z AUTO 18003KT 9999 -RA FEW007/// BKN023/// BKN034/// ///CB 14/14 Q1017 TEMPO 4000 RA BKN004


Station Type Date Time Source
LFLY Decoded METAR 2021/09/20 05:30 UTC NOAA

Lyon / Bron, France (LFLY) 45-43N 004-57E 201M
Sep 20, 2021 - 01:30 AM EDT / 2021.09.20 0530 UTC
Wind: from the S (180 degrees) at 3 MPH (3 KT):0
Visibility: greater than 7 mile(s):0
Sky conditions: mostly cloudy
Weather: light rain; Cumulonimbus clouds observed
Temperature: 57 F (14 C)
Dew Point: 57 F (14 C)
Relative Humidity: 100%
Pressure (altimeter): 30.03 in. Hg (1017 hPa)
ob: LFLY 200530Z AUTO 18003KT 9999 -RA FEW007/// BKN023/// BKN034/// ///CB 14/14 Q1017 TEMPO 4000 RA BKN004
cycle: 5

Station Type Date Time Source
LFLY TAF 2021/09/20 06:24 UTC NOAA

TAF LFLY 200500Z 2006/2106 32005KT 9999 BKN020
TEMPO 2006/2011 4000 RA BKN012 PROB30
TEMPO 2006/2009 BKN004 PROB30
TEMPO 2011/2021 SHRA SCT020TCU
BECMG 2021/2024 BKN003

Example: see airport list